»·PEaware :: ENY877 KGEG-KBOI

ENY877 :: KGEG-KBOI

FLIGHT INFORMATION

Flight Status: Arrived
Operator: Unknown
More flights by this operator :: More flights under this callsign
Pilot: Mitchell L. (19304)
Aircraft: Unknown
(E195)
More flights by this aircraft type
Origin: KGEG Spokane Intl
United States
Destination: KBOI Boise Air Terminal/Gowen
United States
More flights between these airports :: More routes between these airports
Route: GEG3 SUMOQ BEWTE3
File this flight plan on PilotEdge
Remarks:
Altitude:
(Current/Filed)
25,000ft
Speed:
(Current/Filed)
475kts
Departed: 04-Jul-18 08:24 AM
Arrived: 04-Jul-18 09:12 AM
Distance/Time
Traveled:
249nm/0:48
Distance/Time
To Go:
Arrived

Flight Plot

Page will automatically refresh every two minutes.

Flight plan parsing failed; only flown route is shown


Map Options




Map Legend


Flown Route
Filed Route
Departure Airport
Arrival Airport
Navaid (VOR, NDB)
Fix

Horizontal Profiles

Position Reports

Time Latitude Longitude Heading Altitude Ground
Speed
04-Jul-18 07:48 47.624439 -117.535416 293 2381ft 0kts
04-Jul-18 07:49 47.624439 -117.535416 293 2381ft 0kts
04-Jul-18 07:50 47.624439 -117.535416 293 2381ft 0kts
04-Jul-18 07:51 47.624439 -117.535416 293 2381ft 0kts
04-Jul-18 07:52 47.624439 -117.535416 293 2381ft 0kts
04-Jul-18 07:53 47.624439 -117.535416 293 2381ft 0kts
04-Jul-18 07:54 47.624439 -117.535416 293 2381ft 0kts
04-Jul-18 07:55 47.624439 -117.535416 293 2381ft 0kts
04-Jul-18 07:56 47.624439 -117.535416 293 2381ft 0kts
04-Jul-18 07:57 47.624439 -117.535416 293 2381ft 0kts
04-Jul-18 07:58 47.624439 -117.535416 293 2381ft 0kts
04-Jul-18 07:59 47.624439 -117.535416 293 2381ft 0kts
04-Jul-18 08:00 47.624439 -117.535416 293 2381ft 0kts
04-Jul-18 08:01 47.624439 -117.535416 293 2381ft 0kts
04-Jul-18 08:02 47.624439 -117.535416 293 2381ft 0kts
04-Jul-18 08:03 47.624439 -117.535416 293 2381ft 0kts
04-Jul-18 08:04 47.624439 -117.535416 293 2381ft 0kts
04-Jul-18 08:05 47.624439 -117.535416 293 2381ft 0kts
04-Jul-18 08:06 47.624439 -117.535416 293 2381ft 0kts
04-Jul-18 08:07 47.624439 -117.535416 293 2381ft 0kts
04-Jul-18 08:08 47.624439 -117.535416 293 2381ft 0kts
04-Jul-18 08:09 47.624439 -117.535416 293 2381ft 0kts
04-Jul-18 08:10 47.624439 -117.535416 293 2381ft 0kts
04-Jul-18 08:11 47.624431 -117.535388 293 2381ft 2kts
04-Jul-18 08:12 47.624515 -117.534818 189 2381ft 0kts
04-Jul-18 08:13 47.624515 -117.534818 189 2381ft 0kts
04-Jul-18 08:14 47.624515 -117.534819 189 2381ft 0kts
04-Jul-18 08:15 47.624398 -117.534623 109 2381ft 2kts
04-Jul-18 08:16 47.624200 -117.534122 135 2381ft 0kts
04-Jul-18 08:17 47.624371 -117.532620 46 2381ft 8kts
04-Jul-18 08:17 47.626162 -117.529877 44 2381ft 14kts
04-Jul-18 08:18 47.628247 -117.526821 44 2381ft 3kts
04-Jul-18 08:19 47.629554 -117.524818 45 2381ft 10kts
04-Jul-18 08:20 47.632178 -117.520884 52 2381ft 3kts
04-Jul-18 08:21 47.631838 -117.519416 134 2381ft 0kts
04-Jul-18 08:22 47.631835 -117.519412 134 2381ft 0kts
04-Jul-18 08:23 47.630832 -117.518820 223 2381ft 7kts
04-Jul-18 08:24 47.612398 -117.544911 218 3011ft 183kts
04-Jul-18 08:25 47.565163 -117.598779 219 5130ft 231kts
04-Jul-18 08:26 47.513693 -117.661995 218 7601ft 279kts
04-Jul-18 08:27 47.440700 -117.678522 162 10653ft 291kts
04-Jul-18 08:28 47.361339 -117.641100 161 12021ft 323kts
04-Jul-18 08:29 47.270294 -117.600637 161 14545ft 352kts
04-Jul-18 08:30 47.177802 -117.561383 161 17514ft 358kts
04-Jul-18 08:31 47.081828 -117.521390 162 21003ft 366kts
04-Jul-18 08:32 46.992048 -117.484247 165 23815ft 372kts
04-Jul-18 08:33 46.894970 -117.444387 168 25183ft 409kts
04-Jul-18 08:34 46.783059 -117.398908 168 25306ft 420kts
04-Jul-18 08:35 46.671284 -117.353241 168 25187ft 418kts
04-Jul-18 08:36 46.564221 -117.308705 168 25181ft 419kts
04-Jul-18 08:37 46.452740 -117.262720 168 25170ft 418kts
04-Jul-18 08:38 46.341081 -117.217600 168 25162ft 417kts
04-Jul-18 08:39 46.229496 -117.172838 168 25161ft 417kts
04-Jul-18 08:40 46.118072 -117.128280 168 25160ft 417kts
04-Jul-18 08:41 46.006359 -117.083742 168 25160ft 418kts
04-Jul-18 08:42 45.899043 -117.041142 169 25160ft 418kts
04-Jul-18 08:43 45.790434 -116.998571 169 25166ft 419kts
04-Jul-18 08:44 45.678400 -116.954727 169 25165ft 419kts
04-Jul-18 08:45 45.566678 -116.910934 169 25168ft 420kts
04-Jul-18 08:46 45.454605 -116.867165 169 25187ft 421kts
04-Jul-18 08:47 45.342306 -116.823591 169 25201ft 421kts
04-Jul-18 08:48 45.229796 -116.780152 169 25210ft 421kts
04-Jul-18 08:49 45.117715 -116.737096 169 25209ft 421kts
04-Jul-18 08:50 45.006796 -116.694782 169 25208ft 410kts
04-Jul-18 08:51 44.903246 -116.657931 172 24990ft 385kts
04-Jul-18 08:52 44.804424 -116.632186 174 23502ft 372kts
04-Jul-18 08:53 44.704371 -116.607231 173 21580ft 361kts
04-Jul-18 08:54 44.607735 -116.582637 172 19600ft 351kts
04-Jul-18 08:55 44.513223 -116.558871 172 17606ft 342kts
04-Jul-18 08:56 44.421579 -116.535139 171 15615ft 333kts
04-Jul-18 08:57 44.333353 -116.512510 171 14312ft 314kts
04-Jul-18 08:58 44.248165 -116.491296 171 13313ft 311kts
04-Jul-18 08:59 44.165029 -116.470260 170 12079ft 288kts
04-Jul-18 09:00 44.088314 -116.450846 170 10895ft 278kts
04-Jul-18 09:01 44.015715 -116.438895 182 9692ft 278kts
04-Jul-18 09:02 43.940284 -116.444792 182 7662ft 262kts
04-Jul-18 09:03 43.875621 -116.450388 182 7001ft 217kts
04-Jul-18 09:04 43.815548 -116.455362 182 7010ft 217kts
04-Jul-18 09:05 43.755383 -116.461759 182 6964ft 215kts
04-Jul-18 09:06 43.697771 -116.468410 174 5235ft 198kts
04-Jul-18 09:07 43.662603 -116.425506 136 5000ft 177kts
04-Jul-18 09:08 43.625316 -116.381181 135 4658ft 178kts
04-Jul-18 09:09 43.600518 -116.332601 114 4286ft 135kts
04-Jul-18 09:10 43.585634 -116.288435 116 3617ft 126kts
04-Jul-18 09:11 43.573047 -116.251452 116 3056ft 108kts
04-Jul-18 09:12 43.566004 -116.230204 81 2877ft 5kts
04-Jul-18 09:13 43.566642 -116.229606 24 2877ft 0kts
04-Jul-18 09:14 43.568230 -116.227378 115 2877ft 18kts
04-Jul-18 09:15 43.566195 -116.219410 112 2877ft 22kts
04-Jul-18 09:16 43.567651 -116.218673 205 2877ft 9kts
04-Jul-18 09:17 43.567552 -116.218738 204 2877ft 0kts
04-Jul-18 09:18 43.567552 -116.218738 204 2877ft 0kts

Navigation Log

Ident Type
Flight plan parsing failed, navigation log unavailable